Time;durP1;ratioP1;P1;durP2;ratioP2;P2;SDS_P1;SDS_P2;PMS_P1;PMS_P2;Temp;Humidity;BMP_temperature;BMP_pressure;BME280_temperature;BME280_humidity;BME280_pressure;Samples;Min_cycle;Max_cycle;Signal;HPM_P1;HPM_P2
2021/12/10 00:00:22;;;;;;;8.23;7.80;;;3.10;99.90;;;;;;4937173;29;20218;-79
2021/12/10 00:02:48;;;;;;;12.13;11.00;;;3.10;99.90;;;;;;4934602;29;20663;-80
2021/12/10 00:05:18;;;;;;;12.13;11.13;;;3.00;99.90;;;;;;4916245;29;20183;-79
2021/12/10 00:07:45;;;;;;;8.47;7.80;;;3.00;99.90;;;;;;4918967;29;20665;-80
2021/12/10 00:10:16;;;;;;;6.63;6.13;;;2.90;99.90;;;;;;4918874;29;20241;-80
2021/12/10 00:12:50;;;;;;;7.17;6.57;;;2.90;99.90;;;;;;4918741;29;20708;-79
2021/12/10 00:15:21;;;;;;;11.90;10.80;;;2.80;99.90;;;;;;4919292;29;20274;-79
2021/12/10 00:17:47;;;;;;;10.53;9.60;;;2.70;99.90;;;;;;4919260;29;20219;-80
2021/12/10 00:20:13;;;;;;;9.73;7.83;;;2.60;99.90;;;;;;4918591;29;20242;-81
2021/12/10 00:22:49;;;;;;;7.20;6.50;;;2.60;99.90;;;;;;4918684;29;20190;-81
2021/12/10 00:25:19;;;;;;;7.23;6.53;;;2.50;99.90;;;;;;4936759;29;20178;-81
2021/12/10 00:27:50;;;;;;;13.20;7.93;;;2.40;99.90;;;;;;4937178;29;20182;-81
2021/12/10 00:30:23;;;;;;;7.13;6.43;;;2.30;99.90;;;;;;4937452;29;20566;-81
2021/12/10 00:33:02;;;;;;;7.67;7.17;;;2.20;99.90;;;;;;4938544;29;20197;-80
2021/12/10 00:35:30;;;;;;;10.03;9.00;;;2.10;99.90;;;;;;4900091;29;20585;-80
2021/12/10 00:37:57;;;;;;;20.03;18.93;;;2.10;99.90;;;;;;4900397;29;20652;-80
2021/12/10 00:40:26;;;;;;;17.97;16.67;;;2.00;99.90;;;;;;4911526;29;20207;-79
2021/12/10 00:42:53;;;;;;;16.47;15.40;;;2.00;99.90;;;;;;4923685;29;20192;-80
2021/12/10 00:45:20;;;;;;;15.80;14.50;;;2.00;99.90;;;;;;4940069;29;20190;-81
2021/12/10 00:47:47;;;;;;;18.00;16.73;;;1.90;99.90;;;;;;4938446;29;20179;-81
2021/12/10 00:50:18;;;;;;;16.00;15.10;;;1.80;99.90;;;;;;4938984;29;20329;-81
2021/12/10 00:52:45;;;;;;;12.67;11.57;;;1.70;99.90;;;;;;4937387;29;20221;-81
2021/12/10 00:55:13;;;;;;;8.80;8.20;;;1.70;99.90;;;;;;4947007;29;20186;-80
2021/12/10 00:57:39;;;;;;;9.73;6.23;;;1.70;99.90;;;;;;4952892;29;20245;-79
2021/12/10 01:00:09;;;;;;;15.53;7.20;;;1.70;99.90;;;;;;4952893;29;20206;-79
2021/12/10 01:02:35;;;;;;;6.40;6.10;;;1.70;99.90;;;;;;4951215;29;20263;-79
2021/12/10 01:05:01;;;;;;;6.53;6.13;;;1.80;99.90;;;;;;4947879;29;20204;-80
2021/12/10 01:07:32;;;;;;;8.53;7.73;;;1.70;99.90;;;;;;4939172;29;20194;-80
2021/12/10 01:10:00;;;;;;;9.67;9.00;;;1.70;99.90;;;;;;4941968;29;20215;-80
2021/12/10 01:12:37;;;;;;;10.90;9.97;;;1.60;99.90;;;;;;4942667;29;20225;-79
2021/12/10 01:23:54;;;;;;;11.37;10.43;;;1.40;99.90;;;;;;4929789;29;20246;-78
2021/12/10 01:29:14;;;;;;;10.87;10.07;;;1.30;99.90;;;;;;4928814;29;20274;-78
2021/12/10 01:31:42;;;;;;;9.70;8.97;;;1.20;99.90;;;;;;4929412;29;20191;-79
2021/12/10 01:34:09;;;;;;;9.70;8.80;;;1.20;99.90;;;;;;4937382;29;20197;-79
2021/12/10 01:36:36;;;;;;;8.77;8.27;;;1.10;99.90;;;;;;4939925;29;20228;-79
2021/12/10 01:39:06;;;;;;;7.37;6.87;;;1.10;99.90;;;;;;4937507;29;20677;-79
2021/12/10 01:41:37;;;;;;;8.37;7.57;;;1.00;99.90;;;;;;4936894;29;20251;-78
2021/12/10 01:44:14;;;;;;;7.50;6.80;;;1.00;99.90;;;;;;4938697;29;20197;-79
2021/12/10 01:46:41;;;;;;;7.60;6.90;;;0.90;99.90;;;;;;4938490;29;20666;-79
2021/12/10 01:49:09;;;;;;;9.53;6.80;;;0.90;99.90;;;;;;4937034;29;20253;-79
2021/12/10 01:51:37;;;;;;;7.73;7.13;;;0.80;99.90;;;;;;4937026;29;20189;-77
2021/12/10 01:54:13;;;;;;;8.83;7.33;;;0.80;99.90;;;;;;4904121;29;20533;-80
2021/12/10 01:56:39;;;;;;;8.53;7.77;;;0.80;99.90;;;;;;4907716;29;20719;-79
2021/12/10 01:59:10;;;;;;;7.33;6.93;;;0.70;99.90;;;;;;4918829;29;20283;-79
2021/12/10 02:01:41;;;;;;;16.83;7.40;;;0.70;99.90;;;;;;4918875;29;20653;-77
2021/12/10 02:04:15;;;;;;;8.20;7.70;;;0.60;99.90;;;;;;4899536;29;20202;-79
2021/12/10 02:06:41;;;;;;;11.87;7.37;;;0.60;99.90;;;;;;4950165;29;20229;-79
2021/12/10 02:09:08;;;;;;;7.73;7.23;;;0.60;99.90;;;;;;4942337;29;20209;-78
2021/12/10 02:11:34;;;;;;;8.40;7.90;;;0.50;99.90;;;;;;4943294;29;20244;-79
2021/12/10 02:14:00;;;;;;;7.57;7.07;;;0.50;99.90;;;;;;4937264;29;20183;-79
2021/12/10 02:16:27;;;;;;;7.20;6.60;;;0.50;99.90;;;;;;4937551;29;20197;-79
2021/12/10 02:18:53;;;;;;;7.57;6.90;;;0.50;99.90;;;;;;4938853;29;20218;-79
2021/12/10 02:21:23;;;;;;;8.33;7.57;;;0.40;99.90;;;;;;4937151;29;20186;-79
2021/12/10 02:23:57;;;;;;;8.23;7.53;;;0.40;99.90;;;;;;4921096;29;20190;-78
2021/12/10 02:26:26;;;;;;;9.50;7.67;;;0.40;99.90;;;;;;4918364;29;20554;-78
2021/12/10 02:28:52;;;;;;;7.77;7.03;;;0.40;99.90;;;;;;4917643;29;20209;-79
2021/12/10 02:31:18;;;;;;;7.43;6.83;;;0.40;99.90;;;;;;4917272;29;20656;-79
2021/12/10 02:33:44;;;;;;;7.47;6.67;;;0.40;99.90;;;;;;4933613;29;20190;-78
2021/12/10 02:36:12;;;;;;;6.87;6.37;;;0.30;99.90;;;;;;4936915;29;20190;-79
2021/12/10 02:38:43;;;;;;;6.87;6.50;;;0.30;99.90;;;;;;4942865;29;20218;-78
2021/12/10 02:41:09;;;;;;;6.73;6.40;;;0.30;99.90;;;;;;4941878;29;20210;-78
2021/12/10 02:43:36;;;;;;;7.40;7.00;;;0.20;99.90;;;;;;4936738;29;20178;-79
2021/12/10 02:46:03;;;;;;;8.13;7.60;;;0.10;99.90;;;;;;4933581;29;20234;-79
2021/12/10 02:48:30;;;;;;;7.63;7.20;;;0.10;99.90;;;;;;4919221;29;20285;-78
2021/12/10 02:50:57;;;;;;;8.63;8.00;;;0.10;99.90;;;;;;4923331;29;20191;-79
2021/12/10 02:53:27;;;;;;;7.17;6.77;;;0.00;99.90;;;;;;4929621;29;20185;-79
2021/12/10 02:55:55;;;;;;;7.30;6.80;;;0.00;99.90;;;;;;4939504;29;20190;-79
2021/12/10 02:58:21;;;;;;;8.10;7.60;;;-0.10;99.90;;;;;;4938405;29;20285;-78
2021/12/10 03:00:55;;;;;;;9.73;7.27;;;-0.10;99.90;;;;;;4938639;29;20186;-79
2021/12/10 03:03:21;;;;;;;7.50;7.00;;;-0.10;99.90;;;;;;4927871;29;20217;-78
2021/12/10 03:05:48;;;;;;;12.27;11.07;;;0.00;99.90;;;;;;4925617;29;20182;-78
2021/12/10 03:08:14;;;;;;;14.37;13.67;;;-0.10;99.90;;;;;;4925509;29;20215;-77
2021/12/10 03:10:41;;;;;;;16.73;15.90;;;-0.10;99.90;;;;;;4921644;29;20190;-79
2021/12/10 03:13:09;;;;;;;17.60;16.73;;;-0.10;99.90;;;;;;4924557;29;20565;-78
2021/12/10 03:15:35;;;;;;;16.50;15.63;;;-0.20;99.90;;;;;;4936154;29;20182;-79
2021/12/10 03:18:06;;;;;;;15.23;14.20;;;-0.20;99.90;;;;;;4938824;29;20294;-79
2021/12/10 03:20:32;;;;;;;15.07;14.23;;;0.00;99.90;;;;;;4951102;29;20533;-78
2021/12/10 03:22:59;;;;;;;20.93;19.47;;;0.10;99.90;;;;;;4928399;29;20529;-79
2021/12/10 03:25:26;;;;;;;26.17;24.73;;;0.00;99.90;;;;;;4917104;29;20215;-79
2021/12/10 03:27:52;;;;;;;20.90;19.60;;;-0.10;99.90;;;;;;4916071;29;20656;-78
2021/12/10 03:30:25;;;;;;;17.67;16.67;;;-0.10;99.90;;;;;;4915978;29;20551;-79
2021/12/10 03:32:52;;;;;;;19.13;18.03;;;-0.20;99.90;;;;;;4921581;29;20179;-79
2021/12/10 03:35:28;;;;;;;15.80;14.23;;;-0.20;99.90;;;;;;4935749;29;20535;-79
2021/12/10 03:37:56;;;;;;;14.33;13.53;;;-0.30;99.90;;;;;;4953572;29;20217;-79
2021/12/10 03:40:22;;;;;;;16.77;15.73;;;-0.30;99.90;;;;;;4936134;29;20270;-79
2021/12/10 03:42:49;;;;;;;27.63;26.23;;;-0.30;99.90;;;;;;4931837;29;20179;-79
2021/12/10 03:45:17;;;;;;;32.67;30.97;;;-0.10;99.90;;;;;;4916269;29;20254;-79
2021/12/10 03:47:44;;;;;;;25.60;23.97;;;-0.10;99.90;;;;;;4916313;29;20195;-79
2021/12/10 03:50:12;;;;;;;27.27;25.87;;;-0.20;99.90;;;;;;4942594;23;20273;-75
2021/12/10 03:52:38;;;;;;;31.00;29.30;;;-0.20;99.90;;;;;;4930412;29;20187;-75
2021/12/10 03:55:06;;;;;;;32.83;31.00;;;-0.30;99.90;;;;;;4914817;29;20697;-76
2021/12/10 03:57:32;;;;;;;30.03;28.47;;;-0.30;99.90;;;;;;4914822;29;20229;-76
2021/12/10 03:59:58;;;;;;;23.77;22.37;;;-0.30;99.90;;;;;;4914412;29;20234;-75
2021/12/10 04:02:26;;;;;;;19.20;18.13;;;-0.30;99.90;;;;;;4915942;29;20604;-76
2021/12/10 04:04:52;;;;;;;18.17;16.97;;;-0.30;99.90;;;;;;4933458;29;20329;-75
2021/12/10 04:07:24;;;;;;;24.50;23.07;;;-0.30;99.90;;;;;;4948365;28;20210;-76
2021/12/10 04:09:50;;;;;;;31.53;29.63;;;-0.40;99.90;;;;;;4933292;29;20208;-76
2021/12/10 04:12:17;;;;;;;28.93;26.77;;;-0.40;99.90;;;;;;4933376;29;20190;-76
2021/12/10 04:14:45;;;;;;;31.60;29.80;;;-0.50;99.90;;;;;;4948350;29;20216;-75
2021/12/10 04:17:13;;;;;;;33.03;31.33;;;-0.50;99.90;;;;;;4933577;29;20269;-76
2021/12/10 04:19:39;;;;;;;33.80;32.07;;;-0.50;99.90;;;;;;4933177;29;20261;-76
2021/12/10 04:22:09;;;;;;;34.77;33.03;;;-0.50;99.90;;;;;;4932142;29;20183;-76
2021/12/10 04:24:37;;;;;;;35.30;33.33;;;-0.50;99.90;;;;;;4933301;29;20778;-75
2021/12/10 04:27:06;;;;;;;35.10;33.20;;;-0.60;99.90;;;;;;4933571;29;20236;-75
2021/12/10 04:29:33;;;;;;;19.67;18.30;;;-0.60;99.90;;;;;;4933096;29;20241;-75
2021/12/10 04:32:00;;;;;;;10.97;10.20;;;-0.60;99.90;;;;;;4932236;29;20249;-75
2021/12/10 04:34:27;;;;;;;8.83;8.33;;;-0.50;99.90;;;;;;4933287;29;20564;-75
2021/12/10 04:36:56;;;;;;;11.27;8.60;;;-0.50;99.90;;;;;;4932341;29;20566;-75
2021/12/10 04:39:22;;;;;;;10.47;9.77;;;-0.40;99.90;;;;;;4933237;29;20229;-75
2021/12/10 04:41:48;;;;;;;11.60;10.37;;;-0.30;99.90;;;;;;4933070;29;20184;-75
2021/12/10 04:44:14;;;;;;;18.03;16.97;;;-0.30;99.90;;;;;;4932227;29;20182;-75
2021/12/10 04:46:40;;;;;;;19.33;17.70;;;-0.30;99.90;;;;;;4933356;29;20202;-75
2021/12/10 04:49:12;;;;;;;21.13;19.60;;;-0.20;99.90;;;;;;4933131;29;20226;-75
2021/12/10 04:51:42;;;;;;;23.53;21.70;;;-0.20;99.90;;;;;;4947570;28;20183;-75
2021/12/10 04:54:09;;;;;;;35.70;33.77;;;-0.30;99.90;;;;;;4936496;29;20780;-75
2021/12/10 04:56:38;;;;;;;34.90;32.70;;;-0.30;99.90;;;;;;4929680;29;20201;-75
2021/12/10 04:59:06;;;;;;;33.33;30.93;;;-0.30;99.90;;;;;;4936584;29;20211;-75
2021/12/10 05:01:32;;;;;;;34.83;32.57;;;-0.30;99.90;;;;;;4934811;29;20234;-75
2021/12/10 05:03:58;;;;;;;29.20;27.53;;;-0.30;99.90;;;;;;4935017;29;20189;-75
2021/12/10 05:06:24;;;;;;;17.33;16.03;;;-0.30;99.90;;;;;;4936377;29;20184;-75
2021/12/10 05:08:51;;;;;;;17.73;16.63;;;-0.30;99.90;;;;;;4936414;29;20217;-75
2021/12/10 05:11:17;;;;;;;17.03;15.90;;;-0.20;99.90;;;;;;4936932;29;20186;-75
2021/12/10 05:13:45;;;;;;;19.57;17.63;;;-0.30;99.90;;;;;;4940032;29;20710;-75
2021/12/10 05:16:12;;;;;;;20.30;18.50;;;-0.20;99.90;;;;;;4931030;29;20191;-74
2021/12/10 05:18:41;;;;;;;19.10;17.37;;;-0.20;99.90;;;;;;4929715;29;20214;-75
2021/12/10 05:21:10;;;;;;;16.33;14.53;;;-0.20;99.90;;;;;;4939037;29;20183;-74
2021/12/10 05:23:36;;;;;;;16.93;15.33;;;-0.20;99.90;;;;;;4951779;29;20190;-74
2021/12/10 05:26:04;;;;;;;15.03;13.73;;;-0.20;99.90;;;;;;4942443;29;20228;-75
2021/12/10 05:28:30;;;;;;;14.60;13.33;;;-0.20;99.90;;;;;;4934458;29;20210;-75
2021/12/10 05:30:57;;;;;;;18.70;17.30;;;-0.20;99.90;;;;;;4934021;29;20182;-74
2021/12/10 05:33:24;;;;;;;20.13;18.73;;;-0.30;99.90;;;;;;4934728;29;20194;-74
2021/12/10 05:35:51;;;;;;;14.30;13.43;;;-0.30;99.90;;;;;;4934283;29;20210;-74
2021/12/10 05:38:19;;;;;;;12.63;9.03;;;-0.30;99.90;;;;;;4935179;29;20225;-74
2021/12/10 05:40:47;;;;;;;11.93;8.00;;;-0.30;99.90;;;;;;4933869;29;20182;-73
2021/12/10 05:43:13;;;;;;;10.60;9.43;;;-0.30;99.90;;;;;;4927949;29;20198;-74
2021/12/10 05:45:39;;;;;;;16.43;11.43;;;-0.40;99.90;;;;;;4935265;29;20214;-74
2021/12/10 05:48:05;;;;;;;12.70;11.83;;;-0.40;99.90;;;;;;4935077;29;20187;-74
2021/12/10 05:50:33;;;;;;;14.13;12.90;;;-0.50;99.90;;;;;;4949173;28;20279;-74
2021/12/10 05:52:59;;;;;;;16.37;15.37;;;-0.50;99.90;;;;;;4934870;29;20682;-74
2021/12/10 05:55:26;;;;;;;24.50;22.73;;;-0.50;99.90;;;;;;4936025;29;20186;-73
2021/12/10 05:57:53;;;;;;;25.93;24.43;;;-0.60;99.90;;;;;;4935384;29;20914;-75
2021/12/10 06:00:33;;;;;;;22.17;20.67;;;-0.60;99.90;;;;;;4934585;29;20207;-75
2021/12/10 06:02:59;;;;;;;15.63;14.30;;;-0.60;99.90;;;;;;4933909;29;20224;-74
2021/12/10 06:05:27;;;;;;;12.17;11.13;;;-0.70;99.90;;;;;;4934008;29;20699;-74
2021/12/10 06:07:53;;;;;;;11.87;10.87;;;-0.70;99.90;;;;;;4949766;29;20287;-74
2021/12/10 06:10:21;;;;;;;18.00;13.70;;;-0.70;99.90;;;;;;4934573;29;20237;-74
2021/12/10 06:12:49;;;;;;;19.23;17.63;;;-0.70;99.90;;;;;;4933277;29;20572;-74
2021/12/10 06:15:17;;;;;;;20.60;18.17;;;-0.70;99.90;;;;;;4933569;29;20329;-73
2021/12/10 06:17:44;;;;;;;16.27;14.97;;;-0.80;99.90;;;;;;4949335;29;20217;-74
2021/12/10 06:20:13;;;;;;;13.07;10.83;;;-0.80;99.90;;;;;;4932877;29;20207;-74
2021/12/10 06:22:40;;;;;;;11.90;10.73;;;-0.80;99.90;;;;;;4948916;28;20277;-73
2021/12/10 06:25:07;;;;;;;17.53;13.40;;;-0.80;99.90;;;;;;4934503;29;20202;-74
2021/12/10 06:27:34;;;;;;;18.07;16.77;;;-0.70;99.90;;;;;;4934408;29;20228;-73
2021/12/10 06:30:01;;;;;;;14.80;13.30;;;-0.80;99.90;;;;;;4934976;29;20202;-74
2021/12/10 06:32:28;;;;;;;14.53;13.43;;;-0.90;99.90;;;;;;4934772;29;20285;-75
2021/12/10 06:34:54;;;;;;;11.50;10.47;;;-1.00;99.90;;;;;;4934383;29;20178;-75
2021/12/10 06:37:21;;;;;;;12.20;11.03;;;-1.00;99.90;;;;;;4934548;29;20202;-75
2021/12/10 06:39:47;;;;;;;19.53;15.47;;;-1.00;99.90;;;;;;4933897;29;20766;-75
2021/12/10 06:42:13;;;;;;;26.53;24.77;;;-1.00;99.90;;;;;;4934083;29;20187;-75
2021/12/10 06:44:39;;;;;;;30.60;28.67;;;-1.00;99.90;;;;;;4933757;29;20237;-75
2021/12/10 06:47:06;;;;;;;27.77;25.27;;;-1.00;99.90;;;;;;4933987;29;20198;-74
2021/12/10 06:49:33;;;;;;;30.10;28.00;;;-1.00;99.90;;;;;;4933559;29;20260;-75
2021/12/10 06:52:01;;;;;;;32.00;29.97;;;-1.00;99.90;;;;;;4934109;29;20698;-75
2021/12/10 06:54:28;;;;;;;37.83;35.33;;;-1.00;99.90;;;;;;4932476;29;20219;-75
2021/12/10 06:56:56;;;;;;;53.77;50.37;;;-1.00;99.90;;;;;;4933449;29;20225;-73
2021/12/10 06:59:25;;;;;;;55.60;52.07;;;-1.00;99.90;;;;;;4933309;29;20220;-73
2021/12/10 07:01:51;;;;;;;56.07;51.70;;;-1.00;99.90;;;;;;4933861;29;20182;-74
2021/12/10 07:04:17;;;;;;;53.27;49.80;;;-0.90;99.90;;;;;;4933223;29;20175;-74
2021/12/10 07:06:45;;;;;;;49.60;46.17;;;-0.90;99.90;;;;;;4932724;29;20189;-74
2021/12/10 07:09:15;;;;;;;43.63;39.73;;;-0.90;99.90;;;;;;4932868;29;20330;-74
2021/12/10 07:11:41;;;;;;;30.07;27.20;;;-0.80;99.90;;;;;;4933695;29;20186;-74
2021/12/10 07:14:07;;;;;;;23.97;20.90;;;-0.80;99.90;;;;;;4932029;29;20189;-74
2021/12/10 07:16:33;;;;;;;28.63;25.90;;;-0.70;99.90;;;;;;4933186;29;20229;-74
2021/12/10 07:19:01;;;;;;;21.73;19.63;;;-0.60;99.90;;;;;;4932006;29;20593;-73
2021/12/10 07:21:29;;;;;;;32.47;29.20;;;-0.60;99.90;;;;;;4947622;28;20678;-73
2021/12/10 07:23:55;;;;;;;48.70;45.23;;;-0.50;99.90;;;;;;4933229;29;20182;-73
2021/12/10 07:26:21;;;;;;;54.73;51.20;;;-0.50;99.90;;;;;;4932594;29;20213;-73
2021/12/10 07:28:47;;;;;;;48.70;45.10;;;-0.40;99.90;;;;;;4932601;29;20341;-73
2021/12/10 07:31:15;;;;;;;39.93;37.53;;;-0.40;99.90;;;;;;4933790;29;20186;-73
2021/12/10 07:33:41;;;;;;;35.13;32.70;;;-0.30;99.90;;;;;;4931721;29;20265;-77
2021/12/10 07:36:08;;;;;;;28.43;26.13;;;-0.30;99.90;;;;;;4932476;29;20189;-75
2021/12/10 07:38:34;;;;;;;33.77;31.83;;;-0.20;99.90;;;;;;4933261;29;20263;-75
2021/12/10 07:41:01;;;;;;;23.17;20.80;;;-0.20;99.90;;;;;;4933140;29;20308;-75
2021/12/10 07:43:27;;;;;;;17.33;15.93;;;-0.10;99.90;;;;;;4932091;29;20273;-76
2021/12/10 07:45:54;;;;;;;17.87;16.27;;;0.00;99.90;;;;;;4933820;29;20189;-76
2021/12/10 07:48:23;;;;;;;27.43;25.73;;;0.00;99.90;;;;;;4934528;29;20189;-77
2021/12/10 07:51:15;;;;;;;31.27;28.97;;;0.20;99.90;;;;;;4935750;29;20194;-77
2021/12/10 07:53:42;;;;;;;24.40;22.50;;;0.30;99.90;;;;;;4934073;29;20535;-77
2021/12/10 07:56:10;;;;;;;18.57;16.90;;;0.40;99.90;;;;;;4934269;29;20186;-77
2021/12/10 07:58:40;;;;;;;16.30;14.90;;;0.50;99.90;;;;;;4933359;29;20221;-76
2021/12/10 08:01:11;;;;;;;15.30;13.90;;;0.60;99.90;;;;;;4933017;29;20251;-78
2021/12/10 08:03:37;;;;;;;11.53;9.30;;;0.70;99.90;;;;;;4933031;29;20209;-77
2021/12/10 08:06:03;;;;;;;21.17;19.23;;;0.80;99.90;;;;;;4933113;29;20216;-76
2021/12/10 08:08:29;;;;;;;13.97;12.30;;;0.80;99.90;;;;;;4948250;29;20881;-75
2021/12/10 08:10:55;;;;;;;13.67;12.27;;;0.90;99.90;;;;;;4931567;29;20220;-76
2021/12/10 08:13:22;;;;;;;17.70;16.10;;;1.00;99.90;;;;;;4932340;29;20269;-76
2021/12/10 08:15:50;;;;;;;18.70;16.97;;;1.00;99.90;;;;;;4933145;29;20267;-77
2021/12/10 08:18:16;;;;;;;14.67;13.00;;;1.10;99.90;;;;;;4932941;29;20301;-77
2021/12/10 08:20:43;;;;;;;13.93;11.93;;;1.10;99.90;;;;;;4933848;29;20743;-79
2021/12/10 08:23:09;;;;;;;10.77;9.77;;;1.10;99.90;;;;;;4937309;29;20190;-79
2021/12/10 08:25:36;;;;;;;14.17;10.23;;;1.10;99.90;;;;;;4933459;29;20551;-78
2021/12/10 08:28:04;;;;;;;11.13;10.00;;;1.20;99.90;;;;;;4937106;29;20282;-78
2021/12/10 08:30:32;;;;;;;17.87;16.57;;;1.20;99.90;;;;;;4936942;29;20237;-79
2021/12/10 08:32:59;;;;;;;16.43;11.13;;;1.20;99.90;;;;;;4935890;29;20241;-79
2021/12/10 08:35:29;;;;;;;22.87;20.63;;;1.20;99.90;;;;;;4936652;29;20275;-79
2021/12/10 08:37:59;;;;;;;12.50;11.20;;;1.30;99.90;;;;;;4940303;29;20213;-80
2021/12/10 08:40:40;;;;;;;14.57;10.30;;;1.40;99.90;;;;;;4938801;29;20203;-78
2021/12/10 08:43:06;;;;;;;12.90;9.67;;;1.40;99.90;;;;;;4937819;29;20194;-78
2021/12/10 08:45:34;;;;;;;8.57;7.73;;;1.50;99.90;;;;;;4936743;29;20182;-79
2021/12/10 08:48:00;;;;;;;9.17;8.30;;;1.50;99.90;;;;;;4938766;29;20349;-79
2021/12/10 08:50:27;;;;;;;32.53;30.27;;;1.60;99.90;;;;;;4938008;29;20218;-78
2021/12/10 08:53:08;;;;;;;12.33;11.33;;;1.70;99.90;;;;;;4936343;29;20279;-77
2021/12/10 08:55:36;;;;;;;12.43;11.63;;;1.70;99.90;;;;;;4936182;29;20193;-78
2021/12/10 08:58:03;;;;;;;14.50;13.50;;;1.80;99.90;;;;;;4935799;29;20221;-79
2021/12/10 09:00:29;;;;;;;16.33;15.33;;;1.90;99.90;;;;;;4938092;29;20233;-78
2021/12/10 09:02:57;;;;;;;25.40;23.80;;;2.00;99.90;;;;;;4944890;29;20319;-78
2021/12/10 09:05:24;;;;;;;9.43;8.73;;;2.10;99.90;;;;;;4946597;29;20269;-77
2021/12/10 09:07:50;;;;;;;9.70;8.80;;;2.20;99.90;;;;;;4936458;29;20192;-77
2021/12/10 09:10:20;;;;;;;8.50;7.80;;;2.20;99.90;;;;;;4935937;29;20593;-77
2021/12/10 09:12:46;;;;;;;8.70;8.00;;;2.20;99.90;;;;;;4936023;29;20195;-77
2021/12/10 09:15:18;;;;;;;12.80;8.80;;;2.30;99.90;;;;;;4934940;29;20238;-77
2021/12/10 09:17:44;;;;;;;8.27;7.67;;;2.30;99.90;;;;;;4934287;29;20245;-77
2021/12/10 09:20:19;;;;;;;7.87;7.37;;;2.40;99.90;;;;;;4934858;29;20206;-75
2021/12/10 09:22:47;;;;;;;10.03;9.23;;;2.50;99.90;;;;;;4942443;29;20877;-78
2021/12/10 09:25:16;;;;;;;9.80;8.33;;;2.50;99.90;;;;;;4938830;29;20189;-78
2021/12/10 09:27:42;;;;;;;10.53;9.73;;;2.60;99.90;;;;;;4935037;29;20197;-77
2021/12/10 09:30:11;;;;;;;13.67;12.57;;;2.60;99.90;;;;;;4937068;29;20206;-78
2021/12/10 09:32:37;;;;;;;8.23;7.73;;;2.70;99.90;;;;;;4934911;29;20667;-77
2021/12/10 09:35:07;;;;;;;6.97;6.47;;;2.70;99.90;;;;;;4936192;29;20221;-78
2021/12/10 09:37:37;;;;;;;6.17;5.77;;;2.70;99.90;;;;;;4934622;29;20194;-79
2021/12/10 09:40:08;;;;;;;6.43;6.03;;;2.70;99.90;;;;;;4934551;29;20289;-77
2021/12/10 09:42:34;;;;;;;6.60;6.10;;;2.60;99.90;;;;;;4935226;29;20728;-78
2021/12/10 09:45:00;;;;;;;8.60;6.77;;;2.70;99.90;;;;;;4935766;29;20248;-78
2021/12/10 09:47:26;;;;;;;6.60;6.20;;;2.70;99.90;;;;;;4935624;29;20189;-78
2021/12/10 09:49:54;;;;;;;7.13;6.50;;;2.80;99.90;;;;;;4950220;23;20238;-77
2021/12/10 09:52:24;;;;;;;5.60;5.30;;;2.80;99.90;;;;;;4916257;29;20187;-75
2021/12/10 09:54:51;;;;;;;6.37;5.73;;;2.80;99.90;;;;;;4915527;29;20569;-76
2021/12/10 09:57:30;;;;;;;6.33;5.73;;;2.90;99.90;;;;;;4917825;29;20202;-76
2021/12/10 09:59:57;;;;;;;5.97;5.67;;;2.90;99.90;;;;;;4917233;29;20206;-78
2021/12/10 10:02:24;;;;;;;6.37;6.07;;;2.90;99.90;;;;;;4924052;29;20216;-78
2021/12/10 10:04:51;;;;;;;6.93;6.43;;;2.90;99.90;;;;;;4917827;29;20560;-77
2021/12/10 10:07:25;;;;;;;7.23;6.83;;;2.90;99.90;;;;;;4920404;29;20183;-76
2021/12/10 10:09:54;;;;;;;6.53;6.23;;;3.00;99.90;;;;;;4917844;29;20215;-76
2021/12/10 10:12:24;;;;;;;7.00;6.50;;;3.10;99.90;;;;;;4916846;29;20184;-76
2021/12/10 10:14:50;;;;;;;7.27;6.77;;;3.20;99.90;;;;;;4918407;29;20178;-76
2021/12/10 10:17:17;;;;;;;7.37;6.93;;;3.30;99.90;;;;;;4914020;29;20216;-77
2021/12/10 10:19:44;;;;;;;6.40;6.10;;;3.40;99.90;;;;;;4912806;29;20207;-75
2021/12/10 10:22:14;;;;;;;6.60;6.23;;;3.40;99.90;;;;;;4915534;29;20652;-77
2021/12/10 10:24:41;;;;;;;6.50;6.07;;;3.50;99.90;;;;;;4915594;29;20188;-76
2021/12/10 10:27:11;;;;;;;5.77;5.47;;;3.60;99.90;;;;;;4904985;29;20198;-76
2021/12/10 10:29:42;;;;;;;5.17;4.97;;;3.60;99.90;;;;;;4917557;29;20215;-78
2021/12/10 10:32:14;;;;;;;6.30;5.70;;;3.70;99.90;;;;;;4914096;29;20196;-76
2021/12/10 10:34:44;;;;;;;5.50;5.10;;;3.70;99.90;;;;;;4917261;29;20186;-78
2021/12/10 10:37:13;;;;;;;5.17;4.97;;;3.70;99.90;;;;;;4931115;29;20285;-76
2021/12/10 10:39:41;;;;;;;5.53;5.30;;;3.70;99.90;;;;;;4927471;29;20219;-78
2021/12/10 10:42:12;;;;;;;5.83;5.53;;;3.70;99.90;;;;;;4913657;29;20184;-77
2021/12/10 10:44:38;;;;;;;6.07;5.77;;;3.60;99.90;;;;;;4914610;29;20219;-78
2021/12/10 10:47:04;;;;;;;5.40;5.20;;;3.60;99.90;;;;;;4906130;29;20192;-78
2021/12/10 10:49:30;;;;;;;6.30;6.00;;;3.60;99.90;;;;;;4917381;29;20227;-78
2021/12/10 10:51:56;;;;;;;6.53;6.13;;;3.50;99.90;;;;;;4921035;29;20212;-78
2021/12/10 10:54:30;;;;;;;4.80;4.40;;;3.50;99.90;;;;;;4930653;29;20198;-78
2021/12/10 10:56:56;;;;;;;6.43;5.93;;;3.40;99.90;;;;;;4919394;29;20198;-78
2021/12/10 10:59:26;;;;;;;6.17;5.90;;;3.40;99.90;;;;;;4917242;29;20270;-78
2021/12/10 11:02:08;;;;;;;4.80;4.60;;;3.40;99.90;;;;;;4918843;29;20211;-77
2021/12/10 11:04:38;;;;;;;4.90;4.60;;;3.40;99.90;;;;;;4922375;29;20628;-77
2021/12/10 11:07:09;;;;;;;6.00;5.70;;;3.30;99.90;;;;;;4923968;29;20254;-78
2021/12/10 11:09:41;;;;;;;6.30;5.70;;;3.30;99.90;;;;;;4920906;29;20222;-78
2021/12/10 11:12:14;;;;;;;5.10;4.70;;;3.20;99.90;;;;;;4918210;29;20203;-76
2021/12/10 11:14:42;;;;;;;4.43;4.23;;;3.20;99.90;;;;;;4924775;29;20187;-78
2021/12/10 11:17:20;;;;;;;4.87;4.57;;;3.10;99.90;;;;;;4916810;29;20194;-77
2021/12/10 11:19:57;;;;;;;5.30;5.10;;;3.10;99.90;;;;;;4915620;29;20217;-76
2021/12/10 11:22:24;;;;;;;5.07;4.77;;;3.10;99.90;;;;;;4914779;29;20207;-77
2021/12/10 11:24:58;;;;;;;4.40;4.20;;;3.10;99.90;;;;;;4919082;29;20558;-78
2021/12/10 11:27:31;;;;;;;4.60;4.50;;;3.10;99.90;;;;;;4917036;29;20561;-77
2021/12/10 11:30:03;;;;;;;6.13;5.57;;;3.10;99.90;;;;;;4915260;29;20217;-78
2021/12/10 11:32:37;;;;;;;4.03;3.93;;;3.10;99.90;;;;;;4916453;29;20187;-78
2021/12/10 11:35:22;;;;;;;5.90;5.60;;;3.10;99.90;;;;;;4916257;29;20198;-76
2021/12/10 11:37:56;;;;;;;4.80;4.60;;;3.20;99.90;;;;;;4929684;29;20752;-75
2021/12/10 11:40:31;;;;;;;5.23;5.03;;;3.30;99.90;;;;;;4913249;29;20263;-77
2021/12/10 11:43:04;;;;;;;5.23;4.93;;;3.30;99.90;;;;;;4916789;29;20210;-78
2021/12/10 11:45:52;;;;;;;5.43;5.03;;;3.30;99.90;;;;;;4915147;29;20222;-76
2021/12/10 11:48:27;;;;;;;4.97;4.77;;;3.40;99.90;;;;;;4904890;29;20632;-77
2021/12/10 11:50:58;;;;;;;5.30;5.10;;;3.50;99.90;;;;;;4914764;29;20262;-77
2021/12/10 11:53:24;;;;;;;4.63;4.47;;;3.50;99.90;;;;;;4917276;29;20679;-77
2021/12/10 11:56:02;;;;;;;5.00;4.80;;;3.50;99.90;;;;;;4926136;29;20186;-76
2021/12/10 11:58:28;;;;;;;5.33;4.87;;;3.50;99.90;;;;;;4932269;29;20221;-68
2021/12/10 12:00:54;;;;;;;5.00;4.80;;;3.50;99.90;;;;;;4929578;29;20176;-68
2021/12/10 12:03:27;;;;;;;5.40;5.20;;;3.60;99.90;;;;;;4917532;29;20183;-66
2021/12/10 12:05:53;;;;;;;5.20;5.00;;;3.60;99.90;;;;;;4918723;29;20538;-67
2021/12/10 12:08:20;;;;;;;5.40;5.13;;;3.60;99.90;;;;;;4918647;29;20198;-82
2021/12/10 12:10:51;;;;;;;5.60;5.33;;;3.60;99.90;;;;;;4917020;29;20217;-74
2021/12/10 12:15:51;;;;;;;8.23;7.60;;;3.50;99.90;;;;;;4917826;29;20229;-75
2021/12/10 12:18:22;;;;;;;8.20;7.50;;;3.40;99.90;;;;;;4917177;29;20210;-75
2021/12/10 12:20:52;;;;;;;6.60;6.30;;;3.40;99.90;;;;;;4917950;29;20286;-74
2021/12/10 12:26:08;;;;;;;4.80;4.60;;;3.30;99.90;;;;;;4918184;29;20187;-75
2021/12/10 12:28:45;;;;;;;6.40;5.97;;;3.40;99.90;;;;;;4918731;29;20645;-75
2021/12/10 12:31:18;;;;;;;5.50;5.00;;;3.40;99.90;;;;;;4916185;29;20312;-75
2021/12/10 12:33:50;;;;;;;5.60;5.40;;;3.30;99.90;;;;;;4915925;29;20187;-75
2021/12/10 12:36:17;;;;;;;5.50;5.30;;;3.30;99.90;;;;;;4916086;29;20728;-75
2021/12/10 12:38:47;;;;;;;6.50;6.17;;;3.10;99.90;;;;;;4917849;29;20688;-75
2021/12/10 12:41:19;;;;;;;6.20;5.90;;;3.00;99.90;;;;;;4917067;29;20270;-75
2021/12/10 12:43:49;;;;;;;6.80;6.50;;;2.90;99.90;;;;;;4917287;29;20221;-75
2021/12/10 12:46:15;;;;;;;5.93;5.53;;;2.70;99.90;;;;;;4932580;29;20179;-75
2021/12/10 12:49:00;;;;;;;7.90;7.50;;;2.60;99.90;;;;;;4916940;29;20595;-75
2021/12/10 12:51:27;;;;;;;6.40;5.97;;;2.50;99.90;;;;;;4917745;29;20193;-74
2021/12/10 12:53:55;;;;;;;6.23;5.97;;;2.30;99.90;;;;;;4916860;29;20187;-74
2021/12/10 12:56:24;;;;;;;7.50;6.60;;;2.20;99.90;;;;;;4917668;29;20751;-74
2021/12/10 12:58:54;;;;;;;8.43;6.63;;;2.10;99.90;;;;;;4916467;29;20663;-74
2021/12/10 13:01:40;;;;;;;8.50;8.00;;;1.90;99.90;;;;;;4916168;29;20190;-74
2021/12/10 13:04:06;;;;;;;7.57;6.97;;;1.70;99.90;;;;;;4932410;29;20269;-74
2021/12/10 13:06:45;;;;;;;9.83;9.20;;;1.70;99.90;;;;;;4917675;29;20179;-74